createdAt,value
2023-03-15T00:00:16.958Z,1007.91
2023-03-15T00:01:16.952Z,1007.93
2023-03-15T00:02:16.965Z,1007.97
2023-03-15T00:03:17.003Z,1007.96
2023-03-15T00:04:16.936Z,1007.96
2023-03-15T00:05:16.929Z,1008.01
2023-03-15T00:06:16.918Z,1008.01
2023-03-15T00:07:16.933Z,1008.01
2023-03-15T00:08:16.920Z,1008.04
2023-03-15T00:09:16.913Z,1008.03
2023-03-15T00:10:16.909Z,1008.03
2023-03-15T00:11:16.937Z,1008.02
2023-03-15T00:12:16.884Z,1008.04
2023-03-15T00:13:16.882Z,1008.05
2023-03-15T00:14:16.882Z,1008.06
2023-03-15T00:15:16.872Z,1008.08
2023-03-15T00:16:16.938Z,1008.10
2023-03-15T00:17:16.887Z,1008.14
2023-03-15T00:18:16.878Z,1008.13
2023-03-15T00:19:16.870Z,1008.15
2023-03-15T00:20:16.847Z,1008.19
2023-03-15T00:21:16.876Z,1008.16
2023-03-15T00:22:16.854Z,1008.15
2023-03-15T00:23:16.862Z,1008.16
2023-03-15T00:24:16.820Z,1008.19
2023-03-15T00:25:16.835Z,1008.15
2023-03-15T00:26:16.841Z,1008.14
2023-03-15T00:27:16.811Z,1008.20
2023-03-15T00:28:16.821Z,1008.14
2023-03-15T00:29:16.805Z,1008.16
2023-03-15T00:30:16.825Z,1008.13
2023-03-15T00:31:16.927Z,1008.16
2023-03-15T00:32:16.793Z,1008.16
2023-03-15T00:33:16.794Z,1008.15
2023-03-15T00:34:16.776Z,1008.18
2023-03-15T00:35:16.801Z,1008.18
2023-03-15T00:36:16.792Z,1008.18
2023-03-15T00:37:16.762Z,1008.16
2023-03-15T00:38:16.771Z,1008.16
2023-03-15T00:39:16.788Z,1008.16
2023-03-15T00:40:16.753Z,1008.19
2023-03-15T00:41:16.742Z,1008.22
2023-03-15T00:42:16.742Z,1008.22
2023-03-15T00:43:16.747Z,1008.25
2023-03-15T00:44:16.730Z,1008.24
2023-03-15T00:45:16.726Z,1008.22
2023-03-15T00:46:16.773Z,1008.23
2023-03-15T00:47:16.714Z,1008.19
2023-03-15T00:48:16.718Z,1008.19
2023-03-15T00:49:16.713Z,1008.21
2023-03-15T00:50:16.696Z,1008.20
2023-03-15T00:51:16.707Z,1008.25
2023-03-15T00:52:16.698Z,1008.28
2023-03-15T00:53:16.704Z,1008.26
2023-03-15T00:54:16.700Z,1008.24
2023-03-15T00:55:16.712Z,1008.20
2023-03-15T00:56:16.703Z,1008.20
2023-03-15T00:57:16.675Z,1008.25
2023-03-15T00:58:16.655Z,1008.22
2023-03-15T00:59:16.655Z,1008.23
2023-03-15T01:00:16.652Z,1008.22
2023-03-15T01:01:16.661Z,1008.20
2023-03-15T01:02:16.651Z,1008.18
2023-03-15T01:03:16.737Z,1008.22
2023-03-15T01:04:16.645Z,1008.27
2023-03-15T01:05:16.636Z,1008.35
2023-03-15T01:06:16.634Z,1008.39
2023-03-15T01:07:16.647Z,1008.35
2023-03-15T01:08:16.615Z,1008.47
2023-03-15T01:09:16.623Z,1008.41
2023-03-15T01:10:16.604Z,1008.40
2023-03-15T01:11:16.624Z,1008.40
2023-03-15T01:12:16.602Z,1008.38
2023-03-15T01:13:16.601Z,1008.35
2023-03-15T01:14:16.598Z,1008.34
2023-03-15T01:15:16.589Z,1008.30
2023-03-15T01:16:16.584Z,1008.29
2023-03-15T01:17:16.569Z,1008.32
2023-03-15T01:18:16.572Z,1008.37
2023-03-15T01:19:16.560Z,1008.39
2023-03-15T01:20:16.565Z,1008.36
2023-03-15T01:21:16.553Z,1008.40
2023-03-15T01:22:16.552Z,1008.46
2023-03-15T01:23:16.552Z,1008.40
2023-03-15T01:24:16.542Z,1008.46
2023-03-15T01:25:16.549Z,1008.50
2023-03-15T01:26:16.532Z,1008.43
2023-03-15T01:27:16.558Z,1008.52
2023-03-15T01:28:16.514Z,1008.54
2023-03-15T01:29:16.528Z,1008.59
2023-03-15T01:30:16.497Z,1008.63
2023-03-15T01:31:16.529Z,1008.60
2023-03-15T01:32:16.504Z,1008.67
2023-03-15T01:33:16.504Z,1008.72
2023-03-15T01:34:16.478Z,1008.66
2023-03-15T01:35:16.481Z,1008.66
2023-03-15T01:36:16.485Z,1008.67
2023-03-15T01:37:16.480Z,1008.68
2023-03-15T01:38:16.462Z,1008.72
2023-03-15T01:39:16.461Z,1008.70
2023-03-15T01:40:16.456Z,1008.70
2023-03-15T01:41:16.458Z,1008.71
2023-03-15T01:42:16.456Z,1008.72
2023-03-15T01:43:16.475Z,1008.76
2023-03-15T01:44:16.449Z,1008.76
2023-03-15T01:45:16.461Z,1008.67
2023-03-15T01:46:16.497Z,1008.76
2023-03-15T01:47:16.440Z,1008.78
2023-03-15T01:48:16.410Z,1008.77
2023-03-15T01:49:16.424Z,1008.79
2023-03-15T01:50:16.405Z,1008.79
2023-03-15T01:51:16.407Z,1008.82
2023-03-15T01:52:16.406Z,1008.78
2023-03-15T01:53:16.409Z,1008.80
2023-03-15T01:54:16.384Z,1008.78
2023-03-15T01:55:16.381Z,1008.86
2023-03-15T01:56:16.372Z,1008.85
2023-03-15T01:57:16.371Z,1008.89
2023-03-15T01:58:16.360Z,1008.88
2023-03-15T01:59:16.383Z,1008.89
2023-03-15T02:00:16.369Z,1008.88
2023-03-15T02:01:16.524Z,1008.92
2023-03-15T02:02:16.347Z,1008.87
2023-03-15T02:03:16.390Z,1008.86
2023-03-15T02:04:16.334Z,1008.89
2023-03-15T02:05:16.338Z,1008.81
2023-03-15T02:06:16.344Z,1008.86
2023-03-15T02:07:16.344Z,1008.87
2023-03-15T02:08:16.328Z,1008.86
2023-03-15T02:09:16.319Z,1008.89
2023-03-15T02:10:16.327Z,1008.87
2023-03-15T02:11:16.324Z,1008.91
2023-03-15T02:12:16.307Z,1008.91
2023-03-15T02:13:16.294Z,1008.92
2023-03-15T02:14:16.312Z,1008.95
2023-03-15T02:15:16.314Z,1008.95
2023-03-15T02:16:16.354Z,1008.97
2023-03-15T02:17:16.274Z,1008.98
2023-03-15T02:18:16.299Z,1008.97
2023-03-15T02:19:16.283Z,1008.95
2023-03-15T02:20:16.288Z,1008.97
2023-03-15T02:21:16.252Z,1008.97
2023-03-15T02:22:16.266Z,1008.96
2023-03-15T02:23:16.285Z,1009.01
2023-03-15T02:24:16.281Z,1008.96
2023-03-15T02:25:16.250Z,1008.95
2023-03-15T02:26:16.227Z,1008.89
2023-03-15T02:27:16.327Z,1008.89
2023-03-15T02:28:16.222Z,1008.86
2023-03-15T02:29:16.229Z,1008.86
2023-03-15T02:30:16.214Z,1008.87
2023-03-15T02:31:16.289Z,1008.79
2023-03-15T02:32:16.201Z,1008.82
2023-03-15T02:33:16.216Z,1008.81
2023-03-15T02:34:16.189Z,1008.82
2023-03-15T02:35:16.196Z,1008.84
2023-03-15T02:36:16.195Z,1008.82
2023-03-15T02:37:16.196Z,1008.87
2023-03-15T02:38:16.173Z,1008.84
2023-03-15T02:39:16.173Z,1008.81
2023-03-15T02:40:16.176Z,1008.88
2023-03-15T02:41:16.171Z,1008.87
2023-03-15T02:42:16.171Z,1008.88
2023-03-15T02:43:16.144Z,1008.90
2023-03-15T02:44:16.142Z,1008.87
2023-03-15T02:45:16.141Z,1008.85
2023-03-15T02:46:16.195Z,1008.90
2023-03-15T02:47:16.138Z,1008.96
2023-03-15T02:48:16.124Z,1008.97
2023-03-15T02:49:16.131Z,1009.01
2023-03-15T02:50:16.128Z,1009.02
2023-03-15T02:51:16.110Z,1009.01
2023-03-15T02:52:16.102Z,1008.96
2023-03-15T02:53:16.135Z,1009.03
2023-03-15T02:54:16.116Z,1009.02
2023-03-15T02:55:16.133Z,1009.03
2023-03-15T02:56:16.114Z,1009.07
2023-03-15T02:57:16.075Z,1009.06
2023-03-15T02:58:16.087Z,1009.05
2023-03-15T02:59:16.095Z,1009.04
2023-03-15T03:00:16.092Z,1009.05
2023-03-15T03:01:16.217Z,1009.10
2023-03-15T03:02:16.123Z,1009.05
2023-03-15T03:03:16.074Z,1009.04
2023-03-15T03:04:16.095Z,1009.06
2023-03-15T03:05:16.052Z,1009.02
2023-03-15T03:06:16.071Z,1009.02
2023-03-15T03:07:16.039Z,1008.98
2023-03-15T03:08:16.027Z,1008.99
2023-03-15T03:09:16.048Z,1009.05
2023-03-15T03:10:16.029Z,1009.04
2023-03-15T03:11:16.018Z,1009.06
2023-03-15T03:12:16.020Z,1009.07
2023-03-15T03:13:15.994Z,1009.07
2023-03-15T03:14:16.008Z,1009.08
2023-03-15T03:15:16.010Z,1009.10
2023-03-15T03:16:16.054Z,1009.13
2023-03-15T03:17:15.976Z,1009.11
2023-03-15T03:18:15.996Z,1009.11
2023-03-15T03:19:15.981Z,1009.09
2023-03-15T03:20:16.017Z,1009.09
2023-03-15T03:21:15.972Z,1009.09
2023-03-15T03:22:15.952Z,1009.13
2023-03-15T03:23:15.951Z,1009.21
2023-03-15T03:24:16.002Z,1009.14
2023-03-15T03:25:15.933Z,1009.22
2023-03-15T03:26:15.928Z,1009.19
2023-03-15T03:27:15.916Z,1009.21
2023-03-15T03:28:15.937Z,1009.23
2023-03-15T03:29:15.927Z,1009.29
2023-03-15T03:30:15.952Z,1009.31
2023-03-15T03:31:15.923Z,1009.33
2023-03-15T03:32:15.905Z,1009.35
2023-03-15T03:33:15.904Z,1009.35
2023-03-15T03:34:15.934Z,1009.37
2023-03-15T03:35:16.288Z,1009.36
2023-03-15T03:36:15.882Z,1009.38
2023-03-15T03:37:15.879Z,1009.39
2023-03-15T03:38:15.894Z,1009.40
2023-03-15T03:39:15.892Z,1009.43
2023-03-15T03:40:15.867Z,1009.39
2023-03-15T03:41:15.851Z,1009.42
2023-03-15T03:42:15.861Z,1009.42
2023-03-15T03:43:15.865Z,1009.47
2023-03-15T03:44:15.850Z,1009.46
2023-03-15T03:45:15.835Z,1009.47
2023-03-15T03:46:15.871Z,1009.46
2023-03-15T03:47:15.848Z,1009.42
2023-03-15T03:48:15.808Z,1009.46
2023-03-15T03:49:15.806Z,1009.47
2023-03-15T03:50:15.814Z,1009.47
2023-03-15T03:51:15.829Z,1009.52
2023-03-15T03:52:15.796Z,1009.48
2023-03-15T03:53:15.790Z,1009.51
2023-03-15T03:54:17.604Z,1009.54
2023-03-15T03:55:15.770Z,1009.52
2023-03-15T03:56:15.781Z,1009.53
2023-03-15T03:57:15.762Z,1009.48
2023-03-15T03:58:15.760Z,1009.53
2023-03-15T03:59:15.765Z,1009.53
2023-03-15T04:00:15.801Z,1009.51
2023-03-15T04:01:15.745Z,1009.52
2023-03-15T04:02:15.776Z,1009.46
2023-03-15T04:03:15.731Z,1009.51
2023-03-15T04:04:15.773Z,1009.49
2023-03-15T04:05:15.761Z,1009.50
2023-03-15T04:06:15.714Z,1009.51
2023-03-15T04:07:17.087Z,1009.55
2023-03-15T04:08:15.724Z,1009.51
2023-03-15T04:09:15.701Z,1009.49
2023-03-15T04:10:15.726Z,1009.52
2023-03-15T04:11:15.691Z,1009.54
2023-03-15T04:12:15.748Z,1009.52
2023-03-15T04:13:15.693Z,1009.54
2023-03-15T04:14:15.697Z,1009.55
2023-03-15T04:15:15.681Z,1009.59
2023-03-15T04:16:15.755Z,1009.58
2023-03-15T04:17:15.672Z,1009.56
2023-03-15T04:18:15.670Z,1009.63
2023-03-15T04:19:15.657Z,1009.65
2023-03-15T04:20:15.652Z,1009.64
2023-03-15T04:21:15.650Z,1009.69
2023-03-15T04:22:15.632Z,1009.68
2023-03-15T04:23:15.749Z,1009.69
2023-03-15T04:24:15.645Z,1009.67
2023-03-15T04:25:15.625Z,1009.67
2023-03-15T04:26:15.623Z,1009.69
2023-03-15T04:27:15.637Z,1009.72
2023-03-15T04:28:15.622Z,1009.69
2023-03-15T04:29:15.599Z,1009.69
2023-03-15T04:30:15.601Z,1009.68
2023-03-15T04:31:15.610Z,1009.68
2023-03-15T04:32:15.583Z,1009.69
2023-03-15T04:33:15.599Z,1009.72
2023-03-15T04:34:15.596Z,1009.75
2023-03-15T04:35:15.566Z,1009.74
2023-03-15T04:36:15.571Z,1009.78
2023-03-15T04:37:15.564Z,1009.78
2023-03-15T04:38:15.560Z,1009.82
2023-03-15T04:39:15.572Z,1009.80
2023-03-15T04:40:15.548Z,1009.82
2023-03-15T04:41:15.543Z,1009.79
2023-03-15T04:42:15.543Z,1009.79
2023-03-15T04:43:15.548Z,1009.82
2023-03-15T04:44:15.527Z,1009.81
2023-03-15T04:45:15.536Z,1009.85
2023-03-15T04:46:15.551Z,1009.89
2023-03-15T04:47:15.517Z,1009.93
2023-03-15T04:48:15.537Z,1009.99
2023-03-15T04:49:15.519Z,1009.99
2023-03-15T04:50:15.500Z,1010.04
2023-03-15T04:51:15.495Z,1010.08
2023-03-15T04:52:15.505Z,1010.09
2023-03-15T04:53:15.480Z,1010.12
2023-03-15T04:54:15.501Z,1010.12
2023-03-15T04:55:15.502Z,1010.08
2023-03-15T04:56:15.473Z,1010.09
2023-03-15T04:57:15.465Z,1010.12
2023-03-15T04:58:15.470Z,1010.15
2023-03-15T04:59:15.455Z,1010.15
2023-03-15T05:00:15.475Z,1010.17
2023-03-15T05:01:15.484Z,1010.16
2023-03-15T05:02:15.522Z,1010.17
2023-03-15T05:03:15.427Z,1010.14
2023-03-15T05:04:15.434Z,1010.15
2023-03-15T05:05:15.416Z,1010.15
2023-03-15T05:06:15.428Z,1010.19
2023-03-15T05:07:15.419Z,1010.13
2023-03-15T05:08:15.409Z,1010.13
2023-03-15T05:09:15.419Z,1010.14
2023-03-15T05:10:15.392Z,1010.18
2023-03-15T05:11:15.403Z,1010.19
2023-03-15T05:12:15.381Z,1010.16
2023-03-15T05:13:15.389Z,1010.19
2023-03-15T05:14:15.387Z,1010.21
2023-03-15T05:15:15.520Z,1010.21
2023-03-15T05:16:15.430Z,1010.19
2023-03-15T05:17:15.409Z,1010.16
2023-03-15T05:18:15.347Z,1010.16
2023-03-15T05:19:15.357Z,1010.21
2023-03-15T05:20:15.373Z,1010.20
2023-03-15T05:21:15.347Z,1010.22
2023-03-15T05:22:15.343Z,1010.22
2023-03-15T05:23:15.332Z,1010.25
2023-03-15T05:24:15.321Z,1010.27
2023-03-15T05:25:15.334Z,1010.26
2023-03-15T05:26:15.322Z,1010.24
2023-03-15T05:27:15.335Z,1010.27
2023-03-15T05:28:15.316Z,1010.27
2023-03-15T05:29:15.306Z,1010.26
2023-03-15T05:30:15.296Z,1010.27
2023-03-15T05:31:15.302Z,1010.30
2023-03-15T05:32:15.279Z,1010.28
2023-03-15T05:33:15.290Z,1010.32
2023-03-15T05:34:15.272Z,1010.32
2023-03-15T05:35:15.259Z,1010.39
2023-03-15T05:36:15.266Z,1010.38
2023-03-15T05:37:15.247Z,1010.41
2023-03-15T05:38:15.278Z,1010.44
2023-03-15T05:39:15.250Z,1010.47
2023-03-15T05:40:15.233Z,1010.50
2023-03-15T05:41:15.229Z,1010.53
2023-03-15T05:42:15.268Z,1010.55
2023-03-15T05:43:15.292Z,1010.56
2023-03-15T05:44:15.228Z,1010.58
2023-03-15T05:45:15.206Z,1010.57
2023-03-15T05:46:15.348Z,1010.55
2023-03-15T05:47:15.193Z,1010.52
2023-03-15T05:48:15.212Z,1010.56
2023-03-15T05:49:15.197Z,1010.59
2023-03-15T05:50:15.199Z,1010.62
2023-03-15T05:51:15.205Z,1010.63
2023-03-15T05:52:15.174Z,1010.67
2023-03-15T05:53:15.179Z,1010.72
2023-03-15T05:54:15.180Z,1010.78
2023-03-15T05:55:15.168Z,1010.78
2023-03-15T05:56:15.167Z,1010.81
2023-03-15T05:57:15.156Z,1010.88
2023-03-15T05:58:15.144Z,1010.89
2023-03-15T05:59:15.164Z,1010.89
2023-03-15T06:00:15.148Z,1010.94
2023-03-15T06:01:15.124Z,1010.98
2023-03-15T06:02:15.136Z,1010.99
2023-03-15T06:03:15.159Z,1010.99
2023-03-15T06:04:15.208Z,1011.03
2023-03-15T06:05:15.102Z,1011.06
2023-03-15T06:06:15.115Z,1011.06
2023-03-15T06:07:15.107Z,1011.12
2023-03-15T06:08:15.098Z,1011.12
2023-03-15T06:09:15.086Z,1011.13
2023-03-15T06:10:15.093Z,1011.16
2023-03-15T06:11:15.086Z,1011.19
2023-03-15T06:12:15.093Z,1011.14
2023-03-15T06:13:17.807Z,1011.17
2023-03-15T06:14:15.064Z,1011.13
2023-03-15T06:15:15.089Z,1011.18
2023-03-15T06:16:15.111Z,1011.18
2023-03-15T06:17:15.064Z,1011.20
2023-03-15T06:18:15.068Z,1011.22
2023-03-15T06:19:15.051Z,1011.25
2023-03-15T06:20:15.055Z,1011.27
2023-03-15T06:21:15.036Z,1011.22
2023-03-15T06:22:15.030Z,1011.26
2023-03-15T06:23:15.025Z,1011.25
2023-03-15T06:24:15.044Z,1011.29
2023-03-15T06:25:15.023Z,1011.30
2023-03-15T06:26:15.020Z,1011.31
2023-03-15T06:27:15.006Z,1011.32
2023-03-15T06:29:01.587Z,1011.30
2023-03-15T06:30:01.599Z,1011.27
2023-03-15T06:31:01.653Z,1011.28
2023-03-15T06:32:01.591Z,1011.27
2023-03-15T06:33:01.663Z,1011.29
2023-03-15T06:34:01.590Z,1011.24
2023-03-15T06:35:01.554Z,1011.25
2023-03-15T06:36:01.588Z,1011.28
2023-03-15T06:37:01.546Z,1011.34
2023-03-15T06:38:01.562Z,1011.39
2023-03-15T06:39:01.540Z,1011.38
2023-03-15T06:40:01.549Z,1011.45
2023-03-15T06:41:01.537Z,1011.49
2023-03-15T06:42:01.538Z,1011.52
2023-03-15T06:43:01.536Z,1011.51
2023-03-15T06:44:01.538Z,1011.57
2023-03-15T06:45:01.531Z,1011.55
2023-03-15T06:46:01.576Z,1011.65
2023-03-15T06:47:01.533Z,1011.68
2023-03-15T06:48:01.502Z,1011.66
2023-03-15T06:49:01.493Z,1011.66
2023-03-15T06:50:01.511Z,1011.71
2023-03-15T06:51:01.526Z,1011.69
2023-03-15T06:52:01.489Z,1011.72
2023-03-15T06:53:01.484Z,1011.74
2023-03-15T06:54:01.498Z,1011.76
2023-03-15T06:55:01.504Z,1011.77
2023-03-15T06:56:01.484Z,1011.78
2023-03-15T06:57:01.477Z,1011.81
2023-03-15T06:58:01.467Z,1011.81
2023-03-15T06:59:01.455Z,1011.85
2023-03-15T07:00:01.461Z,1011.92
2023-03-15T07:01:01.451Z,1011.89
2023-03-15T07:02:01.461Z,1011.87
2023-03-15T07:03:01.517Z,1011.94
2023-03-15T07:04:01.455Z,1011.92
2023-03-15T07:05:01.436Z,1011.97
2023-03-15T07:06:01.436Z,1011.98
2023-03-15T07:07:01.438Z,1011.94
2023-03-15T07:08:01.456Z,1011.97
2023-03-15T07:09:01.430Z,1011.97
2023-03-15T07:10:01.423Z,1012.00
2023-03-15T07:11:01.419Z,1012.01
2023-03-15T07:12:01.463Z,1012.03
2023-03-15T07:13:01.460Z,1012.05
2023-03-15T07:14:01.415Z,1012.04
2023-03-15T07:15:01.438Z,1012.07
2023-03-15T07:16:01.478Z,1012.11
2023-03-15T07:17:01.404Z,1012.15
2023-03-15T07:18:01.405Z,1012.13
2023-03-15T07:19:01.428Z,1012.17
2023-03-15T07:20:01.382Z,1012.17
2023-03-15T07:21:01.400Z,1012.20
2023-03-15T07:22:01.384Z,1012.23
2023-03-15T07:23:01.376Z,1012.21
2023-03-15T07:24:01.379Z,1012.29
2023-03-15T07:25:01.372Z,1012.29
2023-03-15T07:26:01.370Z,1012.31
2023-03-15T07:27:01.381Z,1012.27
2023-03-15T07:28:01.345Z,1012.33
2023-03-15T07:29:01.342Z,1012.34
2023-03-15T07:30:01.385Z,1012.42
2023-03-15T07:31:01.337Z,1012.42
2023-03-15T07:32:01.445Z,1012.47
2023-03-15T07:33:01.520Z,1012.47
2023-03-15T07:34:01.318Z,1012.48
2023-03-15T07:35:01.360Z,1012.48
2023-03-15T07:36:01.390Z,1012.51
2023-03-15T07:37:01.312Z,1012.52
2023-03-15T07:38:01.311Z,1012.54
2023-03-15T07:39:01.317Z,1012.58
2023-03-15T07:40:01.300Z,1012.58
2023-03-15T07:41:01.330Z,1012.60
2023-03-15T07:42:01.290Z,1012.66
2023-03-15T07:43:01.281Z,1012.63
2023-03-15T07:44:01.273Z,1012.65
2023-03-15T07:45:01.271Z,1012.66
2023-03-15T07:46:01.286Z,1012.69
2023-03-15T07:47:01.362Z,1012.74
2023-03-15T07:48:01.263Z,1012.76
2023-03-15T07:49:01.270Z,1012.78
2023-03-15T07:50:01.246Z,1012.79
2023-03-15T07:51:01.280Z,1012.80
2023-03-15T07:52:01.275Z,1012.84
2023-03-15T07:53:01.236Z,1012.86
2023-03-15T07:54:01.231Z,1012.88
2023-03-15T07:55:01.235Z,1012.88
2023-03-15T07:56:01.227Z,1012.86
2023-03-15T07:57:01.233Z,1012.93
2023-03-15T07:58:01.210Z,1012.94
2023-03-15T07:59:01.237Z,1012.94
2023-03-15T08:00:01.222Z,1012.97
2023-03-15T08:01:01.199Z,1013.00
2023-03-15T08:02:02.953Z,1013.00
2023-03-15T08:03:01.272Z,1013.03
2023-03-15T08:04:01.194Z,1013.02
2023-03-15T08:05:01.195Z,1013.03
2023-03-15T08:06:01.177Z,1013.04
2023-03-15T08:07:01.198Z,1013.07
2023-03-15T08:08:01.182Z,1013.08
2023-03-15T08:09:01.177Z,1013.09
2023-03-15T08:10:01.161Z,1013.10
2023-03-15T08:11:01.169Z,1013.14
2023-03-15T08:12:01.150Z,1013.14
2023-03-15T08:13:01.147Z,1013.16
2023-03-15T08:14:01.140Z,1013.17
2023-03-15T08:15:01.150Z,1013.16
2023-03-15T08:16:01.198Z,1013.18
2023-03-15T08:17:01.145Z,1013.16
2023-03-15T08:18:01.140Z,1013.22
2023-03-15T08:19:01.134Z,1013.19
2023-03-15T08:20:01.144Z,1013.24
2023-03-15T08:21:01.129Z,1013.24
2023-03-15T08:22:01.175Z,1013.27
2023-03-15T08:23:01.181Z,1013.27
2023-03-15T08:24:01.156Z,1013.27
2023-03-15T08:25:01.104Z,1013.28
2023-03-15T08:26:01.081Z,1013.33
2023-03-15T08:27:01.088Z,1013.32
2023-03-15T08:28:01.099Z,1013.35
2023-03-15T08:29:01.080Z,1013.37
2023-03-15T08:30:01.071Z,1013.38
2023-03-15T08:31:01.104Z,1013.35
2023-03-15T08:32:01.237Z,1013.42
2023-03-15T08:33:01.137Z,1013.38
2023-03-15T08:34:01.060Z,1013.41
2023-03-15T08:35:01.056Z,1013.45
2023-03-15T08:36:01.076Z,1013.44
2023-03-15T08:37:01.039Z,1013.45
2023-03-15T08:38:01.032Z,1013.49
2023-03-15T08:39:01.054Z,1013.47
2023-03-15T08:40:01.028Z,1013.53
2023-03-15T08:41:01.029Z,1013.51
2023-03-15T08:42:01.026Z,1013.50
2023-03-15T08:43:01.009Z,1013.57
2023-03-15T08:44:01.017Z,1013.53
2023-03-15T08:45:01.022Z,1013.53
2023-03-15T08:46:01.992Z,1013.55
2023-03-15T08:47:01.084Z,1013.57
2023-03-15T08:48:01.001Z,1013.56
2023-03-15T08:49:01.003Z,1013.60
2023-03-15T08:50:00.985Z,1013.67
2023-03-15T08:51:00.970Z,1013.63
2023-03-15T08:52:00.972Z,1013.71
2023-03-15T08:53:00.977Z,1013.74
2023-03-15T08:54:00.988Z,1013.76
2023-03-15T08:55:00.980Z,1013.78
2023-03-15T08:56:00.980Z,1013.79
2023-03-15T08:57:00.959Z,1013.82
2023-03-15T08:58:00.946Z,1013.88
2023-03-15T08:59:00.940Z,1013.91
2023-03-15T09:00:00.920Z,1013.91
2023-03-15T09:01:00.940Z,1013.91
2023-03-15T09:02:01.100Z,1013.87
2023-03-15T09:03:00.914Z,1013.92
2023-03-15T09:04:00.936Z,1013.97
2023-03-15T09:05:00.931Z,1013.99
2023-03-15T09:06:00.898Z,1013.96
2023-03-15T09:07:00.920Z,1013.96
2023-03-15T09:08:00.890Z,1013.96
2023-03-15T09:09:00.881Z,1014.01
2023-03-15T09:10:02.426Z,1013.97
2023-03-15T09:11:00.896Z,1013.98
2023-03-15T09:12:00.888Z,1013.99
2023-03-15T09:13:00.865Z,1014.01
2023-03-15T09:14:00.864Z,1014.00
2023-03-15T09:15:00.876Z,1013.99
2023-03-15T09:16:00.860Z,1013.97
2023-03-15T09:17:00.948Z,1013.97
2023-03-15T09:18:00.843Z,1013.97
2023-03-15T09:19:00.851Z,1013.98
2023-03-15T09:20:00.832Z,1013.99
2023-03-15T09:21:00.849Z,1013.98
2023-03-15T09:22:15.946Z,1013.99
2023-03-15T09:23:00.852Z,1013.99
2023-03-15T09:24:00.840Z,1014.03
2023-03-15T09:25:00.835Z,1014.04
2023-03-15T09:26:00.805Z,1014.07
2023-03-15T09:27:00.845Z,1014.03
2023-03-15T09:28:00.808Z,1014.09
2023-03-15T09:29:00.810Z,1014.07
2023-03-15T09:30:00.819Z,1014.03
2023-03-15T09:31:00.829Z,1014.02
2023-03-15T09:32:00.788Z,1014.01
2023-03-15T09:33:00.908Z,1014.01
2023-03-15T09:34:00.795Z,1014.04
2023-03-15T09:35:00.772Z,1014.00
2023-03-15T09:36:00.810Z,1014.06
2023-03-15T09:37:00.759Z,1014.01
2023-03-15T09:38:00.762Z,1014.02
2023-03-15T09:39:00.761Z,1014.02
2023-03-15T09:40:00.777Z,1014.06
2023-03-15T09:41:00.751Z,1014.08
2023-03-15T09:42:00.759Z,1014.07
2023-03-15T09:43:00.778Z,1014.09
2023-03-15T09:44:00.736Z,1014.11
2023-03-15T09:45:00.749Z,1014.10
2023-03-15T09:46:00.789Z,1014.11
2023-03-15T09:47:00.745Z,1014.11
2023-03-15T09:48:00.707Z,1014.12
2023-03-15T09:49:00.742Z,1014.17
2023-03-15T09:50:00.728Z,1014.15
2023-03-15T09:51:00.707Z,1014.16
2023-03-15T09:52:00.692Z,1014.20
2023-03-15T09:53:00.688Z,1014.15
2023-03-15T09:54:00.709Z,1014.13
2023-03-15T09:55:00.692Z,1014.12
2023-03-15T09:56:00.693Z,1014.13
2023-03-15T09:57:00.678Z,1014.12
2023-03-15T09:58:00.681Z,1014.12
2023-03-15T09:59:00.681Z,1014.13
2023-03-15T10:00:00.698Z,1014.16
2023-03-15T10:01:00.650Z,1014.12
2023-03-15T10:02:00.697Z,1014.14
2023-03-15T10:03:00.654Z,1014.13
2023-03-15T10:04:00.712Z,1014.14
2023-03-15T10:05:00.637Z,1014.13
2023-03-15T10:06:00.647Z,1014.16
2023-03-15T10:07:00.630Z,1014.13
2023-03-15T10:08:00.629Z,1014.15
2023-03-15T10:09:00.630Z,1014.14
2023-03-15T10:10:00.625Z,1014.13
2023-03-15T10:11:00.610Z,1014.16
2023-03-15T10:12:00.616Z,1014.15
2023-03-15T10:13:00.609Z,1014.11
2023-03-15T10:14:00.620Z,1014.12
2023-03-15T10:15:00.627Z,1014.13
2023-03-15T10:16:00.647Z,1014.12
2023-03-15T10:17:00.589Z,1014.08
2023-03-15T10:18:00.568Z,1014.09
2023-03-15T10:19:00.577Z,1014.11
2023-03-15T10:20:00.558Z,1014.11
2023-03-15T10:21:00.575Z,1014.08
2023-03-15T10:22:00.557Z,1014.08
2023-03-15T10:23:00.573Z,1014.10
2023-03-15T10:24:00.538Z,1014.14
2023-03-15T10:25:00.568Z,1014.11
2023-03-15T10:26:00.533Z,1014.11
2023-03-15T10:27:00.551Z,1014.15
2023-03-15T10:28:00.552Z,1014.15
2023-03-15T10:29:00.519Z,1014.16
2023-03-15T10:30:00.526Z,1014.18
2023-03-15T10:31:00.619Z,1014.17
2023-03-15T10:32:00.549Z,1014.20
2023-03-15T10:33:00.617Z,1014.22
2023-03-15T10:34:00.489Z,1014.24
2023-03-15T10:35:00.494Z,1014.19
2023-03-15T10:36:10.721Z,1014.20
2023-03-15T10:37:00.490Z,1014.18
2023-03-15T10:38:00.470Z,1014.21
2023-03-15T10:39:00.477Z,1014.23
2023-03-15T10:40:00.483Z,1014.24
2023-03-15T10:41:00.471Z,1014.24
2023-03-15T10:42:00.467Z,1014.24
2023-03-15T10:43:00.462Z,1014.23
2023-03-15T10:44:00.439Z,1014.25
2023-03-15T10:45:00.447Z,1014.24
2023-03-15T10:46:00.436Z,1014.28
2023-03-15T10:47:03.015Z,1014.29
2023-03-15T10:48:01.166Z,1014.26
2023-03-15T10:49:00.442Z,1014.25
2023-03-15T10:50:00.424Z,1014.24
2023-03-15T10:51:00.456Z,1014.26
2023-03-15T10:52:00.400Z,1014.23
2023-03-15T10:53:00.420Z,1014.21
2023-03-15T10:54:00.394Z,1014.16
2023-03-15T10:55:04.400Z,1014.15
2023-03-15T10:56:00.413Z,1014.14
2023-03-15T10:57:00.400Z,1014.20
2023-03-15T10:58:00.411Z,1014.18
2023-03-15T10:59:11.848Z,1014.21
2023-03-15T11:00:00.377Z,1014.22
2023-03-15T11:01:00.374Z,1014.19
2023-03-15T11:02:00.389Z,1014.17
2023-03-15T11:03:00.426Z,1014.19
2023-03-15T11:04:00.354Z,1014.20
2023-03-15T11:05:00.356Z,1014.22
2023-03-15T11:06:00.344Z,1014.16
2023-03-15T11:07:00.335Z,1014.23
2023-03-15T11:08:00.329Z,1014.23
2023-03-15T11:09:00.335Z,1014.30
2023-03-15T11:10:00.330Z,1014.27
2023-03-15T11:11:00.332Z,1014.25
2023-03-15T11:12:00.323Z,1014.25
2023-03-15T11:13:00.318Z,1014.30
2023-03-15T11:14:00.303Z,1014.25
2023-03-15T11:15:00.329Z,1014.27
2023-03-15T11:16:00.436Z,1014.31
2023-03-15T11:17:00.336Z,1014.30
2023-03-15T11:18:00.293Z,1014.34
2023-03-15T11:19:00.299Z,1014.38
2023-03-15T11:20:00.292Z,1014.40
2023-03-15T11:21:00.273Z,1014.37
2023-03-15T11:22:00.262Z,1014.38
2023-03-15T11:23:00.268Z,1014.34
2023-03-15T11:24:00.250Z,1014.36
2023-03-15T11:25:00.332Z,1014.36
2023-03-15T11:26:00.245Z,1014.39
2023-03-15T11:27:00.242Z,1014.43
2023-03-15T11:28:00.244Z,1014.40
2023-03-15T11:29:00.250Z,1014.38
2023-03-15T11:30:00.229Z,1014.44
2023-03-15T11:31:00.242Z,1014.41
2023-03-15T11:32:00.217Z,1014.48
2023-03-15T11:33:00.296Z,1014.51
2023-03-15T11:34:00.216Z,1014.62
2023-03-15T11:35:00.234Z,1014.56
2023-03-15T11:36:00.301Z,1014.59
2023-03-15T11:37:07.896Z,1014.61
2023-03-15T11:38:12.863Z,1014.63
2023-03-15T11:39:02.856Z,1014.59
2023-03-15T11:40:10.518Z,1014.60
2023-03-15T11:41:00.179Z,1014.55
2023-03-15T11:42:00.191Z,1014.54
2023-03-15T11:43:00.184Z,1014.53
2023-03-15T11:44:00.173Z,1014.56
2023-03-15T11:45:00.169Z,1014.54
2023-03-15T11:46:00.275Z,1014.56
2023-03-15T11:47:00.164Z,1014.63
2023-03-15T11:48:00.169Z,1014.63
2023-03-15T11:49:00.138Z,1014.63
2023-03-15T11:50:00.154Z,1014.62
2023-03-15T11:51:00.171Z,1014.66
2023-03-15T11:52:00.177Z,1014.71
2023-03-15T11:53:00.133Z,1014.71
2023-03-15T11:54:00.129Z,1014.67
2023-03-15T11:55:00.136Z,1014.67
2023-03-15T11:56:00.119Z,1014.67
2023-03-15T11:57:00.095Z,1014.70
2023-03-15T11:58:00.120Z,1014.75
2023-03-15T11:59:01.109Z,1014.70
2023-03-15T12:00:00.209Z,1014.67
2023-03-15T12:01:00.100Z,1014.74
2023-03-15T12:02:00.245Z,1014.72
2023-03-15T12:03:00.124Z,1014.77
2023-03-15T12:04:00.089Z,1014.80
2023-03-15T12:05:09.137Z,1014.77
2023-03-15T12:06:00.096Z,1014.82